createdAt,value
2018-03-15T00:01:22.981Z,99156.89
2018-03-15T00:03:51.666Z,99160.34
2018-03-15T00:06:20.353Z,99164.38
2018-03-15T00:08:48.979Z,99164.66
2018-03-15T00:11:18.493Z,99163.38
2018-03-15T00:13:47.945Z,99160.14
2018-03-15T00:16:16.494Z,99161.94
2018-03-15T00:18:45.217Z,99161.70
2018-03-15T00:21:13.893Z,99160.63
2018-03-15T00:23:42.589Z,99158.29
2018-03-15T00:26:11.585Z,99156.59
2018-03-15T00:28:40.168Z,99157.36
2018-03-15T00:31:08.733Z,99157.39
2018-03-15T00:33:37.333Z,99155.63
2018-03-15T00:36:05.886Z,99152.92
2018-03-15T00:38:34.596Z,99151.04
2018-03-15T00:41:03.683Z,99153.52
2018-03-15T00:43:32.376Z,99155.50
2018-03-15T00:46:01.069Z,99147.74
2018-03-15T00:48:29.742Z,99147.46
2018-03-15T00:50:58.440Z,99147.13
2018-03-15T00:53:27.125Z,99145.31
2018-03-15T00:55:55.911Z,99144.17
2018-03-15T00:58:24.488Z,99146.86
2018-03-15T01:00:53.283Z,99148.48
2018-03-15T01:03:21.968Z,99148.22
2018-03-15T01:05:50.590Z,99142.02
2018-03-15T01:08:20.052Z,99145.55
2018-03-15T01:10:49.045Z,99138.75
2018-03-15T01:13:17.694Z,99143.75
2018-03-15T01:15:46.424Z,99137.44
2018-03-15T01:18:15.029Z,99141.16
2018-03-15T01:20:44.443Z,99138.83
2018-03-15T01:23:13.913Z,99143.18
2018-03-15T01:25:42.696Z,99146.22
2018-03-15T01:28:11.328Z,99147.20
2018-03-15T01:30:39.917Z,99147.18
2018-03-15T01:33:09.479Z,99151.73
2018-03-15T01:35:38.164Z,99148.83
2018-03-15T01:38:06.848Z,99151.97
2018-03-15T01:40:35.732Z,99151.53
2018-03-15T01:43:04.383Z,99151.36
2018-03-15T01:45:33.104Z,99155.00
2018-03-15T01:48:02.043Z,99153.61
2018-03-15T01:50:31.350Z,99153.89
2018-03-15T01:52:59.898Z,99154.62
2018-03-15T01:55:28.717Z,99154.73
2018-03-15T01:57:58.052Z,99149.48
2018-03-15T02:00:26.604Z,99159.62
2018-03-15T02:02:56.164Z,99153.12
2018-03-15T02:05:24.851Z,99162.02
2018-03-15T02:07:53.536Z,99167.53
2018-03-15T02:10:22.320Z,99169.29
2018-03-15T02:12:51.007Z,99164.12
2018-03-15T02:15:19.699Z,99167.50
2018-03-15T02:17:48.433Z,99161.78
2018-03-15T02:20:17.165Z,99156.23
2018-03-15T02:22:45.708Z,99160.84
2018-03-15T02:25:14.638Z,99153.08
2018-03-15T02:27:43.181Z,99147.55
2018-03-15T02:30:11.730Z,99145.84
2018-03-15T02:32:40.335Z,99145.13
2018-03-15T02:35:09.689Z,99146.47
2018-03-15T02:37:39.007Z,99145.31
2018-03-15T02:40:09.574Z,99145.38
2018-03-15T02:42:38.122Z,99152.58
2018-03-15T02:45:06.692Z,99149.09
2018-03-15T02:47:35.288Z,99158.42
2018-03-15T02:50:03.861Z,99158.97
2018-03-15T02:52:32.418Z,99157.84
2018-03-15T02:55:01.223Z,99164.88
2018-03-15T02:57:29.775Z,99167.20
2018-03-15T02:59:58.325Z,99166.73
2018-03-15T03:02:27.890Z,99168.95
2018-03-15T03:04:56.442Z,99169.38
2018-03-15T03:07:24.988Z,99171.56
2018-03-15T03:09:53.592Z,99177.61
2018-03-15T03:12:22.907Z,99170.29
2018-03-15T03:14:51.452Z,99179.48
2018-03-15T03:17:20.056Z,99182.41
2018-03-15T03:19:49.373Z,99182.24
2018-03-15T03:22:17.920Z,99182.92
2018-03-15T03:24:47.345Z,99184.72
2018-03-15T03:27:16.661Z,99190.52
2018-03-15T03:29:45.193Z,99189.48
2018-03-15T03:32:13.867Z,99189.36
2018-03-15T03:34:42.420Z,99188.81
2018-03-15T03:37:10.965Z,99189.58
2018-03-15T03:39:40.328Z,99189.20
2018-03-15T03:42:08.877Z,99187.77
2018-03-15T03:44:37.790Z,99194.30
2018-03-15T03:47:06.496Z,99194.92
2018-03-15T03:49:35.041Z,99197.07
2018-03-15T03:52:03.593Z,99196.11
2018-03-15T03:54:32.965Z,99199.41
2018-03-15T03:57:01.512Z,99200.33
2018-03-15T03:59:30.055Z,99199.13
2018-03-15T04:01:59.431Z,99199.17
2018-03-15T04:04:27.976Z,99195.98
2018-03-15T04:06:56.533Z,99195.90
2018-03-15T04:09:26.096Z,99193.56
2018-03-15T04:11:54.651Z,99194.44
2018-03-15T04:14:23.197Z,99193.40
2018-03-15T04:16:52.866Z,99191.75
2018-03-15T04:19:21.416Z,99194.77
2018-03-15T04:21:50.041Z,99189.34
2018-03-15T04:24:18.639Z,99196.14
2018-03-15T04:26:47.193Z,99191.58
2018-03-15T04:29:15.740Z,99204.17
2018-03-15T04:31:45.108Z,99201.68
2018-03-15T04:34:13.664Z,99212.45
2018-03-15T04:36:42.208Z,99214.81
2018-03-15T04:39:10.860Z,99220.58
2018-03-15T04:41:39.416Z,99218.51
2018-03-15T04:44:07.965Z,99220.09
2018-03-15T04:46:36.661Z,99222.45
2018-03-15T04:49:05.222Z,99228.62
2018-03-15T04:51:34.568Z,99235.34
2018-03-15T04:54:03.364Z,99231.06
2018-03-15T04:56:31.914Z,99236.20
2018-03-15T04:59:00.633Z,99240.61
2018-03-15T05:01:29.522Z,99239.03
2018-03-15T05:03:58.213Z,99244.58
2018-03-15T05:06:26.765Z,99240.70
2018-03-15T05:08:55.379Z,99238.38
2018-03-15T05:11:24.063Z,99247.67
2018-03-15T05:13:52.750Z,99243.09
2018-03-15T05:16:21.533Z,99239.22
2018-03-15T05:18:50.219Z,99240.89
2018-03-15T05:21:18.851Z,99243.93
2018-03-15T05:23:48.320Z,99246.11
2018-03-15T05:26:17.044Z,99248.39
2018-03-15T05:28:46.504Z,99247.84
2018-03-15T05:31:15.707Z,99244.96
2018-03-15T05:33:45.056Z,99245.34
2018-03-15T05:36:13.736Z,99248.19
2018-03-15T05:38:42.679Z,99251.25
2018-03-15T05:41:11.771Z,99253.19
2018-03-15T05:43:40.665Z,99257.16
2018-03-15T05:46:09.706Z,99260.68
2018-03-15T05:48:39.119Z,99269.19
2018-03-15T05:51:07.851Z,99265.38
2018-03-15T05:53:36.585Z,99268.36
2018-03-15T05:56:06.004Z,99267.45
2018-03-15T05:58:34.720Z,99273.52
2018-03-15T06:01:03.664Z,99279.95
2018-03-15T06:03:33.123Z,99282.42
2018-03-15T06:06:01.706Z,99282.44
2018-03-15T06:08:30.485Z,99288.97
2018-03-15T06:10:59.077Z,99283.97
2018-03-15T06:13:27.633Z,99293.45
2018-03-15T06:15:56.236Z,99294.64
2018-03-15T06:18:25.552Z,99297.33
2018-03-15T06:20:54.109Z,99299.63
2018-03-15T06:23:23.223Z,99299.57
2018-03-15T06:25:51.776Z,99297.19
2018-03-15T06:28:20.348Z,99298.02
2018-03-15T06:30:48.967Z,99306.06
2018-03-15T06:33:17.870Z,99312.78
2018-03-15T06:35:46.421Z,99311.08
2018-03-15T06:38:15.230Z,99314.53
2018-03-15T06:40:43.781Z,99314.55
2018-03-15T06:43:12.341Z,99320.67
2018-03-15T06:45:41.949Z,99311.09
2018-03-15T06:48:11.267Z,99318.33
2018-03-15T06:50:39.820Z,99321.19
2018-03-15T06:53:09.603Z,99321.17
2018-03-15T06:55:38.152Z,99326.80
2018-03-15T06:58:06.707Z,99326.62
2018-03-15T07:00:35.312Z,99331.91
2018-03-15T07:03:03.882Z,99331.30
2018-03-15T07:05:32.447Z,99325.33
2018-03-15T07:08:01.356Z,99328.08
2018-03-15T07:10:29.923Z,99333.63
2018-03-15T07:12:58.548Z,99334.77
2018-03-15T07:15:27.915Z,99335.05
2018-03-15T07:17:56.460Z,99336.09
2018-03-15T07:20:25.083Z,99338.22
2018-03-15T07:22:54.013Z,99332.98
2018-03-15T07:25:22.560Z,99334.07
2018-03-15T07:27:51.108Z,99335.59
2018-03-15T07:30:20.028Z,99334.95
2018-03-15T07:32:48.587Z,99329.13
2018-03-15T07:35:17.297Z,99331.83
2018-03-15T07:37:45.937Z,99334.17
2018-03-15T07:40:14.488Z,99339.81
2018-03-15T07:42:43.809Z,99334.81
2018-03-15T07:45:12.820Z,99339.45
2018-03-15T07:47:41.376Z,99341.84
2018-03-15T07:50:10.701Z,99343.20
2018-03-15T07:52:39.388Z,99343.47
2018-03-15T07:55:07.940Z,99338.53
2018-03-15T07:57:37.420Z,99334.88
2018-03-15T08:00:06.063Z,99336.83
2018-03-15T08:02:34.723Z,99338.05
2018-03-15T08:05:04.082Z,99331.20
2018-03-15T08:07:33.891Z,99329.86
2018-03-15T08:10:02.440Z,99335.14
2018-03-15T08:12:31.268Z,99326.91
2018-03-15T08:14:59.954Z,99332.05
2018-03-15T08:17:28.761Z,99330.70
2018-03-15T08:19:57.326Z,99332.55
2018-03-15T08:22:26.006Z,99332.45
2018-03-15T08:24:54.573Z,99334.38
2018-03-15T08:27:23.137Z,99325.91
2018-03-15T08:29:51.753Z,99339.17
2018-03-15T08:32:21.116Z,99341.31
2018-03-15T08:34:49.664Z,99339.50
2018-03-15T08:37:18.272Z,99339.06
2018-03-15T08:39:47.236Z,99329.42
2018-03-15T08:42:15.800Z,99328.45
2018-03-15T08:44:44.688Z,99327.50
2018-03-15T08:47:13.248Z,99329.48
2018-03-15T08:49:41.800Z,99325.09
2018-03-15T08:52:11.270Z,99327.88
2018-03-15T08:54:39.949Z,99324.57
2018-03-15T08:57:08.514Z,99325.73
2018-03-15T08:59:37.112Z,99323.77
2018-03-15T09:02:06.633Z,99321.32
2018-03-15T09:04:35.512Z,99321.12
2018-03-15T09:07:03.928Z,99320.38
2018-03-15T09:09:33.240Z,99319.68
2018-03-15T09:12:02.788Z,99324.34
2018-03-15T09:14:31.571Z,99327.27
2018-03-15T09:17:00.195Z,99322.71
2018-03-15T09:19:29.520Z,99324.52
2018-03-15T09:21:58.117Z,99325.02
2018-03-15T09:24:26.674Z,99332.45
2018-03-15T09:26:55.989Z,99322.93
2018-03-15T09:29:25.462Z,99321.79
2018-03-15T09:31:54.796Z,99321.24
2018-03-15T09:34:23.417Z,99321.60
2018-03-15T09:36:52.035Z,99322.59
2018-03-15T09:39:21.377Z,99318.12
2018-03-15T09:41:50.309Z,99319.93
2018-03-15T09:44:19.727Z,99316.48
2018-03-15T09:46:48.312Z,99313.65
2018-03-15T09:49:17.660Z,99315.59
2018-03-15T09:51:46.480Z,99317.93
2018-03-15T09:54:15.829Z,99309.22
2018-03-15T09:56:44.414Z,99305.39
2018-03-15T09:59:13.451Z,99299.00
2018-03-15T10:01:42.380Z,99300.39
2018-03-15T10:04:11.767Z,99299.80
2018-03-15T10:06:40.638Z,99307.07
2018-03-15T10:09:09.226Z,99310.70
2018-03-15T10:11:38.577Z,99308.56
2018-03-15T10:14:07.220Z,99312.58
2018-03-15T10:16:35.819Z,99305.14
2018-03-15T10:19:04.417Z,99307.86
2018-03-15T10:21:33.148Z,99302.63
2018-03-15T10:24:02.487Z,99302.92
2018-03-15T10:26:31.212Z,99295.62
2018-03-15T10:29:00.180Z,99302.08
2018-03-15T10:31:28.896Z,99292.98
2018-03-15T10:33:58.390Z,99295.03
2018-03-15T10:36:27.134Z,99289.59
2018-03-15T10:38:55.875Z,99289.81
2018-03-15T10:41:25.383Z,99284.82
2018-03-15T10:43:54.114Z,99279.76
2018-03-15T10:46:22.693Z,99283.55
2018-03-15T10:48:51.440Z,99283.83
2018-03-15T10:51:20.284Z,99275.13
2018-03-15T10:53:48.986Z,99269.34
2018-03-15T10:56:18.482Z,99268.14
2018-03-15T10:58:47.522Z,99260.03
2018-03-15T11:01:28.056Z,99253.66
2018-03-15T11:04:15.532Z,99247.02
2018-03-15T11:07:04.633Z,99255.61
2018-03-15T11:09:33.416Z,99251.58
2018-03-15T11:12:01.995Z,99251.67
2018-03-15T11:14:30.578Z,99240.16
2018-03-15T11:16:59.565Z,99239.91
2018-03-15T11:19:28.255Z,99241.64
2018-03-15T11:21:56.857Z,99229.22
2018-03-15T11:24:25.473Z,99223.28
2018-03-15T11:26:54.056Z,99220.88
2018-03-15T11:29:22.637Z,99217.70
2018-03-15T11:31:51.472Z,99213.14
2018-03-15T11:34:20.046Z,99212.66
2018-03-15T11:36:48.637Z,99216.89
2018-03-15T11:39:17.264Z,99208.84
2018-03-15T11:41:45.852Z,99214.61
2018-03-15T11:44:14.419Z,99209.02
2018-03-15T11:46:43.817Z,99212.47
2018-03-15T11:49:13.173Z,99206.59
2018-03-15T11:51:41.781Z,99198.96
2018-03-15T11:54:10.676Z,99200.02
2018-03-15T11:56:40.182Z,99198.78
2018-03-15T11:59:08.762Z,99197.05
2018-03-15T12:01:38.256Z,99198.91
2018-03-15T12:04:06.784Z,99200.76
2018-03-15T12:06:35.372Z,99191.02
2018-03-15T12:09:04.959Z,99187.69
2018-03-15T12:11:34.336Z,99186.19
2018-03-15T12:14:02.923Z,99182.52
2018-03-15T12:16:31.819Z,99180.25
2018-03-15T12:19:00.373Z,99180.75
2018-03-15T12:21:28.932Z,99177.27
2018-03-15T12:23:57.536Z,99172.80
2018-03-15T12:26:26.075Z,99171.75
2018-03-15T12:28:54.789Z,99174.38
2018-03-15T12:31:24.296Z,99172.44
2018-03-15T12:33:52.848Z,99173.72
2018-03-15T12:36:21.512Z,99166.36
2018-03-15T12:38:50.547Z,99167.30
2018-03-15T12:41:19.909Z,99169.98
2018-03-15T12:43:48.491Z,99164.48
2018-03-15T12:46:17.256Z,99159.42
2018-03-15T12:48:45.809Z,99159.81
2018-03-15T12:51:15.125Z,99160.25
2018-03-15T12:53:44.048Z,99170.66
2018-03-15T12:56:12.636Z,99158.04
2018-03-15T12:58:41.188Z,99156.10
2018-03-15T13:01:10.245Z,99153.09
2018-03-15T13:03:39.561Z,99152.95
2018-03-15T13:06:08.876Z,99149.77
2018-03-15T13:08:37.561Z,99148.73
2018-03-15T13:11:06.108Z,99153.58
2018-03-15T13:13:34.660Z,99155.04
2018-03-15T13:16:03.445Z,99147.64
2018-03-15T13:18:31.989Z,99154.96
2018-03-15T13:21:00.544Z,99158.30
2018-03-15T13:23:29.648Z,99160.05
2018-03-15T13:25:58.966Z,99160.19
2018-03-15T13:28:27.521Z,99153.83
2018-03-15T13:30:56.903Z,99161.48
2018-03-15T13:33:25.474Z,99158.22
2018-03-15T13:35:54.015Z,99154.33
2018-03-15T13:38:22.613Z,99153.08
2018-03-15T13:40:51.157Z,99148.70
2018-03-15T13:43:20.476Z,99151.52
2018-03-15T13:45:49.181Z,99151.73
2018-03-15T13:48:17.732Z,99152.84
2018-03-15T13:50:47.053Z,99148.88
2018-03-15T13:53:15.664Z,99138.88
2018-03-15T13:55:44.213Z,99145.80
2018-03-15T13:58:12.777Z,99147.42
2018-03-15T14:00:42.146Z,99148.28
2018-03-15T14:03:10.725Z,99152.33
2018-03-15T14:05:39.276Z,99158.69
2018-03-15T14:08:08.198Z,99150.05
2018-03-15T14:10:36.752Z,99150.51
2018-03-15T14:13:05.321Z,99154.63
2018-03-15T14:15:33.944Z,99157.39
2018-03-15T14:18:02.495Z,99154.98
2018-03-15T14:20:31.226Z,99166.03
2018-03-15T14:23:00.220Z,99159.76
2018-03-15T14:25:28.904Z,99160.36
2018-03-15T14:27:57.544Z,99159.81
2018-03-15T14:30:26.277Z,99164.01
2018-03-15T14:32:54.853Z,99155.83
2018-03-15T14:35:23.392Z,99165.20
2018-03-15T14:37:51.988Z,99162.23
2018-03-15T14:40:20.711Z,99159.58
2018-03-15T14:42:49.256Z,99156.08
2018-03-15T14:45:17.902Z,99154.20
2018-03-15T14:47:47.220Z,99158.09
2018-03-15T14:50:16.533Z,99157.05
2018-03-15T14:52:45.259Z,99164.30
2018-03-15T14:55:13.801Z,99171.38
2018-03-15T14:57:42.351Z,99172.27
2018-03-15T15:00:10.956Z,99174.19
2018-03-15T15:02:40.280Z,99174.86
2018-03-15T15:05:08.832Z,99173.67
2018-03-15T15:07:38.285Z,99182.55
2018-03-15T15:10:06.828Z,99176.70
2018-03-15T15:12:36.144Z,99179.35
2018-03-15T15:15:04.888Z,99179.30
2018-03-15T15:17:33.464Z,99183.19
2018-03-15T15:20:02.020Z,99181.53
2018-03-15T15:22:30.729Z,99186.05
2018-03-15T15:25:00.633Z,99190.53
2018-03-15T15:27:29.236Z,99182.38
2018-03-15T15:29:57.828Z,99186.30
2018-03-15T15:32:26.381Z,99188.56
2018-03-15T15:34:54.928Z,99199.14
2018-03-15T15:37:23.524Z,99194.98
2018-03-15T15:39:52.073Z,99196.22
2018-03-15T15:42:21.393Z,99194.05
2018-03-15T15:44:50.024Z,99197.16
2018-03-15T15:47:18.599Z,99197.42
2018-03-15T15:49:47.298Z,99202.16
2018-03-15T15:52:15.912Z,99196.88
2018-03-15T15:54:45.375Z,99191.32
2018-03-15T15:57:13.962Z,99204.27
2018-03-15T15:59:42.945Z,99198.86
2018-03-15T16:02:11.494Z,99199.88
2018-03-15T16:04:40.045Z,99198.28
2018-03-15T16:07:09.420Z,99202.11
2018-03-15T16:09:37.964Z,99204.82
2018-03-15T16:12:06.514Z,99210.94
2018-03-15T16:14:36.028Z,99207.89
2018-03-15T16:17:05.489Z,99214.99
2018-03-15T16:19:34.088Z,99214.50
2018-03-15T16:22:02.729Z,99217.64
2018-03-15T16:24:31.348Z,99219.31
2018-03-15T16:26:59.970Z,99225.67
2018-03-15T16:29:29.640Z,99229.17
2018-03-15T16:31:58.330Z,99232.39
2018-03-15T16:34:26.867Z,99233.41
2018-03-15T16:36:55.513Z,99243.09
2018-03-15T16:39:24.838Z,99242.95
2018-03-15T16:41:54.249Z,99255.20
2018-03-15T16:44:23.182Z,99260.48
2018-03-15T16:46:51.867Z,99249.95
2018-03-15T16:49:20.453Z,99255.88
2018-03-15T16:51:49.544Z,99254.77
2018-03-15T16:54:18.093Z,99258.45
2018-03-15T16:56:46.667Z,99265.62
2018-03-15T16:59:15.350Z,99266.27
2018-03-15T17:01:44.805Z,99267.09
2018-03-15T17:04:13.588Z,99275.05
2018-03-15T17:06:42.532Z,99273.07
2018-03-15T17:09:11.991Z,99277.14
2018-03-15T17:11:40.664Z,99284.73
2018-03-15T17:14:09.736Z,99279.62
2018-03-15T17:16:38.457Z,99284.50
2018-03-15T17:19:07.239Z,99285.28
2018-03-15T17:21:35.940Z,99289.19
2018-03-15T17:24:04.707Z,99284.19
2018-03-15T17:26:33.405Z,99288.90
2018-03-15T17:29:02.289Z,99291.37
2018-03-15T17:31:30.976Z,99292.32
2018-03-15T17:33:59.661Z,99294.84
2018-03-15T17:36:28.395Z,99300.11
2018-03-15T17:38:58.715Z,99301.13
2018-03-15T17:41:28.181Z,99303.16
2018-03-15T17:43:56.971Z,99310.46
2018-03-15T17:46:25.545Z,99306.50
2018-03-15T17:48:54.343Z,99307.28
2018-03-15T17:51:24.109Z,99323.80
2018-03-15T17:53:52.836Z,99315.41
2018-03-15T17:56:21.518Z,99317.90
2018-03-15T17:58:50.410Z,99324.11
2018-03-15T18:01:19.099Z,99327.52
2018-03-15T18:03:47.887Z,99330.15
2018-03-15T18:06:16.864Z,99331.98
2018-03-15T18:08:45.564Z,99332.77
2018-03-15T18:11:14.297Z,99337.37
2018-03-15T18:13:43.757Z,99338.43
2018-03-15T18:16:13.326Z,99333.67
2018-03-15T18:18:42.762Z,99339.48
2018-03-15T18:21:11.795Z,99348.72
2018-03-15T18:23:40.444Z,99350.53
2018-03-15T18:26:09.126Z,99344.17
2018-03-15T18:28:37.923Z,99351.55
2018-03-15T18:31:06.490Z,99349.02
2018-03-15T18:33:35.137Z,99353.56
2018-03-15T18:36:03.772Z,99358.23
2018-03-15T18:38:32.456Z,99363.91
2018-03-15T18:41:01.142Z,99370.92
2018-03-15T18:43:29.910Z,99361.49
2018-03-15T18:45:58.612Z,99365.94
2018-03-15T18:48:27.245Z,99366.34
2018-03-15T18:50:56.714Z,99370.67
2018-03-15T18:53:25.277Z,99370.66
2018-03-15T18:55:53.969Z,99380.45
2018-03-15T18:58:22.862Z,99388.61
2018-03-15T19:00:51.536Z,99388.73
2018-03-15T19:03:20.236Z,99393.55
2018-03-15T19:05:49.092Z,99397.45
2018-03-15T19:08:17.815Z,99393.39
2018-03-15T19:10:46.455Z,99397.74
2018-03-15T19:13:15.186Z,99405.56
2018-03-15T19:15:43.873Z,99408.13
2018-03-15T19:18:12.559Z,99406.51
2018-03-15T19:20:41.156Z,99414.05
2018-03-15T19:23:09.869Z,99409.74
2018-03-15T19:25:39.329Z,99408.25
2018-03-15T19:28:08.322Z,99397.83
2018-03-15T19:30:37.007Z,99392.13
2018-03-15T19:33:05.792Z,99390.98
2018-03-15T19:35:34.891Z,99383.06
2018-03-15T19:38:03.580Z,99374.66
2018-03-15T19:40:32.158Z,99367.56
2018-03-15T19:43:00.889Z,99373.31
2018-03-15T19:45:30.352Z,99370.08
2018-03-15T19:47:58.929Z,99375.22
2018-03-15T19:50:28.347Z,99369.17
2018-03-15T19:52:57.654Z,99382.39
2018-03-15T19:55:26.335Z,99383.27
2018-03-15T19:57:55.796Z,99386.27
2018-03-15T20:00:24.418Z,99386.08
2018-03-15T20:02:53.872Z,99391.22
2018-03-15T20:05:22.569Z,99391.77
2018-03-15T20:07:51.368Z,99391.08
2018-03-15T20:10:20.766Z,99393.09
2018-03-15T20:12:49.802Z,99393.08
2018-03-15T20:15:19.255Z,99389.69
2018-03-15T20:17:47.940Z,99389.90
2018-03-15T20:20:16.932Z,99388.03
2018-03-15T20:22:51.215Z,99389.38
2018-03-15T20:25:19.997Z,99391.95
2018-03-15T20:27:55.152Z,99392.06
2018-03-15T20:30:24.951Z,99400.20
2018-03-15T20:32:59.171Z,99402.53
2018-03-15T20:35:27.869Z,99410.02
2018-03-15T20:37:56.434Z,99412.74
2018-03-15T20:40:30.657Z,99415.65
2018-03-15T20:42:59.441Z,99419.41
2018-03-15T20:45:33.915Z,99421.06
2018-03-15T20:48:08.926Z,99425.04
2018-03-15T20:50:37.993Z,99424.56
2018-03-15T20:53:07.475Z,99432.09
2018-03-15T20:55:36.156Z,99439.08
2018-03-15T20:58:05.040Z,99443.41
2018-03-15T21:00:33.725Z,99442.38
2018-03-15T21:03:02.392Z,99449.77
2018-03-15T21:05:31.384Z,99446.55
2018-03-15T21:08:00.089Z,99441.98
2018-03-15T21:10:28.676Z,99448.27
2018-03-15T21:12:57.575Z,99455.99
2018-03-15T21:15:27.068Z,99460.34
2018-03-15T21:17:56.493Z,99458.25
2018-03-15T21:20:25.942Z,99454.27
2018-03-15T21:22:54.630Z,99458.09
2018-03-15T21:25:23.316Z,99456.22
2018-03-15T21:27:52.191Z,99451.25
2018-03-15T21:30:20.834Z,99453.59
2018-03-15T21:32:50.298Z,99460.06
2018-03-15T21:35:19.119Z,99460.55
2018-03-15T21:37:48.587Z,99460.67
2018-03-15T21:40:17.273Z,99462.73
2018-03-15T21:42:46.202Z,99459.63
2018-03-15T21:45:15.664Z,99464.45
2018-03-15T21:47:44.313Z,99463.44
2018-03-15T21:50:13.036Z,99462.02
2018-03-15T21:52:41.674Z,99464.19
2018-03-15T21:55:10.410Z,99467.75
2018-03-15T21:57:39.400Z,99468.16
2018-03-15T22:00:08.086Z,99463.70
2018-03-15T22:02:36.673Z,99464.11
2018-03-15T22:05:05.640Z,99460.11
2018-03-15T22:07:34.351Z,99455.92
2018-03-15T22:10:03.037Z,99454.42
2018-03-15T22:12:31.967Z,99452.09
2018-03-15T22:15:01.433Z,99447.00
2018-03-15T22:17:30.017Z,99445.50
2018-03-15T22:19:58.977Z,99446.43
2018-03-15T22:22:27.617Z,99446.02
2018-03-15T22:24:56.349Z,99442.37
2018-03-15T22:27:25.143Z,99438.48
2018-03-15T22:29:53.728Z,99441.64
2018-03-15T22:32:22.309Z,99441.05
2018-03-15T22:34:51.092Z,99442.45
2018-03-15T22:37:19.685Z,99438.17
2018-03-15T22:39:48.365Z,99435.01
2018-03-15T22:42:17.358Z,99436.59
2018-03-15T22:44:46.001Z,99437.45
2018-03-15T22:47:14.700Z,99439.73
2018-03-15T22:49:43.389Z,99448.25
2018-03-15T22:52:12.880Z,99442.72
2018-03-15T22:54:41.578Z,99444.73
2018-03-15T22:57:10.363Z,99446.67
2018-03-15T22:59:39.157Z,99442.02
2018-03-15T23:02:07.720Z,99434.37
2018-03-15T23:04:36.420Z,99443.34
2018-03-15T23:07:05.104Z,99441.44
2018-03-15T23:09:33.648Z,99450.88
2018-03-15T23:12:02.623Z,99447.80
2018-03-15T23:14:32.110Z,99450.03
2018-03-15T23:17:00.780Z,99445.53
2018-03-15T23:19:30.602Z,99447.21
2018-03-15T23:22:00.063Z,99443.20
2018-03-15T23:24:28.750Z,99443.33
2018-03-15T23:26:57.580Z,99445.16
2018-03-15T23:29:26.931Z,99440.72
2018-03-15T23:31:55.566Z,99439.16
2018-03-15T23:34:25.017Z,99443.48
2018-03-15T23:36:53.698Z,99442.63
2018-03-15T23:39:22.393Z,99440.61
2018-03-15T23:41:51.280Z,99436.81
2018-03-15T23:44:19.967Z,99432.82
2018-03-15T23:46:48.598Z,99438.39
2018-03-15T23:49:18.516Z,99435.72
2018-03-15T23:51:47.977Z,99436.03
2018-03-15T23:54:16.663Z,99430.77
2018-03-15T23:56:45.495Z,99432.18
2018-03-15T23:59:14.809Z,99426.47
